Time;durP1;ratioP1;P1;durP2;ratioP2;P2;SDS_P1;SDS_P2;PMS_P1;PMS_P2;Temp;Humidity;BMP_temperature;BMP_pressure;BME280_temperature;BME280_humidity;BME280_pressure;Samples;Min_cycle;Max_cycle;Signal;HPM_P1;HPM_P2
2023/03/01 00:03:49;;;;;;;20.10;12.20;;;5.40;83.90;;;3.54;65.70;101175.81;10458001;27;96692;-85
2023/03/01 00:08:52;;;;;;;23.87;14.27;;;5.40;84.20;;;3.50;66.17;101175.19;10427109;27;98216;-84
2023/03/01 00:14:00;;;;;;;27.57;15.30;;;5.30;84.50;;;3.47;66.33;101178.00;10470578;27;98263;-84
2023/03/01 00:19:04;;;;;;;22.33;13.80;;;5.30;84.70;;;3.45;66.46;101183.38;10440222;27;96676;-84
2023/03/01 00:24:08;;;;;;;23.40;14.27;;;5.30;84.90;;;3.44;66.42;101181.69;10458924;27;98149;-84
2023/03/01 00:29:11;;;;;;;24.23;14.57;;;5.30;85.10;;;3.41;66.87;101179.22;10460944;27;96706;-84
2023/03/01 00:34:14;;;;;;;21.33;13.10;;;5.20;85.40;;;3.42;67.06;101190.63;10474424;27;96612;-84
2023/03/01 00:39:17;;;;;;;22.87;13.63;;;5.20;85.70;;;3.43;67.12;101189.66;10475657;27;98172;-84
2023/03/01 00:44:20;;;;;;;28.33;16.60;;;5.20;85.70;;;3.41;67.00;101181.03;10493196;27;98405;-84
2023/03/01 00:49:27;;;;;;;22.73;13.47;;;5.20;85.90;;;3.43;67.32;101181.78;10469087;27;98282;-83
2023/03/01 00:54:30;;;;;;;28.47;14.53;;;5.20;86.10;;;3.41;67.17;101184.50;10506575;27;96505;-83
2023/03/01 00:59:33;;;;;;;24.50;15.13;;;5.20;86.20;;;3.38;67.44;101192.59;10533211;27;96838;-84
2023/03/01 01:04:36;;;;;;;24.00;13.93;;;5.20;86.40;;;3.39;67.29;101180.28;10487296;27;98129;-85
2023/03/01 01:09:39;;;;;;;26.30;15.77;;;5.20;86.40;;;3.39;67.14;101175.88;10503668;27;96513;-85
2023/03/01 01:14:42;;;;;;;26.13;15.23;;;5.20;86.70;;;3.40;67.20;101179.34;10493552;27;96502;-85
2023/03/01 01:19:45;;;;;;;22.17;13.43;;;5.20;86.80;;;3.39;67.27;101186.38;10497629;27;96553;-84
2023/03/01 01:24:48;;;;;;;21.37;12.40;;;5.20;87.00;;;3.35;67.51;101170.91;10487338;27;96565;-85
2023/03/01 01:29:53;;;;;;;23.57;14.20;;;5.20;87.10;;;3.36;67.97;101159.44;10515903;27;98662;-84
2023/03/01 01:34:56;;;;;;;23.73;13.70;;;5.20;87.40;;;3.36;67.87;101155.06;10490740;27;98438;-84
2023/03/01 01:40:03;;;;;;;20.27;13.43;;;5.10;87.50;;;3.28;68.20;101141.56;10488477;27;98541;-84
2023/03/01 01:45:28;;;;;;;22.20;14.23;;;5.10;87.60;;;3.26;68.17;101139.97;10493683;27;97246;-84
2023/03/01 01:50:37;;;;;;;23.67;14.10;;;5.10;88.00;;;3.20;68.22;101134.16;10498093;27;97594;-83
2023/03/01 01:55:48;;;;;;;26.73;16.33;;;5.00;88.00;;;3.15;68.73;101127.53;10447814;27;98155;-84
2023/03/01 02:00:52;;;;;;;28.55;18.08;;;5.00;88.50;;;3.13;69.29;101124.16;10450795;27;97423;-83
2023/03/01 02:06:39;;;;;;;23.00;13.63;;;4.90;88.90;;;3.13;69.52;101132.03;10431777;27;96623;-84
2023/03/01 02:11:44;;;;;;;20.33;12.77;;;4.90;89.30;;;3.14;69.36;101126.69;10448999;27;96542;-83
2023/03/01 02:16:47;;;;;;;25.63;12.03;;;4.90;89.30;;;3.12;69.61;101125.94;10474058;27;96880;-83
2023/03/01 02:22:23;;;;;;;20.57;12.00;;;4.90;89.60;;;3.11;69.98;101132.13;10458754;27;96857;-83
2023/03/01 02:27:40;;;;;;;22.37;12.43;;;4.90;90.00;;;3.10;70.17;101116.47;10436364;27;96576;-83
2023/03/01 02:32:44;;;;;;;19.53;11.97;;;4.90;90.10;;;3.10;70.61;101111.22;10453257;27;98597;-84
2023/03/01 02:37:48;;;;;;;18.53;10.90;;;4.90;90.30;;;3.12;70.64;101112.81;10445252;27;96765;-83
2023/03/01 02:42:56;;;;;;;17.40;10.10;;;4.90;90.40;;;3.13;70.90;101096.13;10460370;27;97053;-86
2023/03/01 02:47:59;;;;;;;17.23;10.90;;;4.90;90.60;;;3.14;70.74;101096.94;10445646;27;98454;-86
2023/03/01 02:53:13;;;;;;;15.63;9.60;;;4.90;90.80;;;3.16;70.93;101097.69;10482219;27;96542;-86
2023/03/01 02:58:16;;;;;;;14.13;8.67;;;4.90;90.90;;;3.14;71.30;101086.44;10485101;27;97283;-87
2023/03/01 03:03:21;;;;;;;14.27;9.10;;;4.90;91.20;;;3.14;71.69;101087.28;10493713;27;96634;-87
2023/03/01 03:08:26;;;;;;;14.53;8.40;;;4.90;91.30;;;3.12;71.48;101083.06;10460572;27;96758;-87
2023/03/01 03:13:29;;;;;;;14.80;8.93;;;4.90;91.40;;;3.11;71.85;101084.00;10484048;27;96560;-86
2023/03/01 03:18:32;;;;;;;11.20;7.27;;;4.90;91.50;;;3.08;71.55;101076.34;10481865;27;96405;-85
2023/03/01 03:23:35;;;;;;;14.17;8.67;;;4.90;91.50;;;3.07;71.52;101072.03;10494474;27;96628;-85
2023/03/01 03:28:39;;;;;;;12.03;7.70;;;4.80;91.60;;;3.00;71.64;101074.22;10518068;27;97587;-86
2023/03/01 03:33:43;;;;;;;12.80;8.17;;;4.80;91.70;;;2.95;71.54;101074.50;10512731;27;98052;-86
2023/03/01 03:38:48;;;;;;;13.00;7.63;;;4.80;91.80;;;2.92;71.82;101069.44;10480804;27;97381;-86
2023/03/01 03:43:51;;;;;;;13.33;6.97;;;4.70;91.90;;;2.94;71.80;101070.19;10473265;27;97606;-86
2023/03/01 03:48:55;;;;;;;12.10;8.17;;;4.80;92.00;;;2.96;71.84;101067.47;10491518;27;96577;-85
2023/03/01 03:54:03;;;;;;;13.50;8.97;;;4.80;92.40;;;3.00;71.92;101070.72;10480007;27;96712;-83
2023/03/01 03:59:09;;;;;;;16.23;8.07;;;4.80;92.20;;;3.05;72.13;101066.00;10467105;27;97926;-84
2023/03/01 04:04:13;;;;;;;15.67;8.93;;;4.90;92.30;;;3.07;71.86;101072.03;10456114;27;96483;-84
2023/03/01 04:09:15;;;;;;;15.43;9.30;;;4.90;92.30;;;3.11;72.08;101079.59;10497776;27;96640;-84
2023/03/01 04:14:19;;;;;;;26.23;12.87;;;4.90;92.40;;;3.15;71.69;101083.72;10477291;27;96548;-84
2023/03/01 04:19:22;;;;;;;21.93;10.73;;;5.00;92.50;;;3.17;71.94;101083.59;10468860;27;96528;-84
2023/03/01 04:24:25;;;;;;;17.00;9.27;;;5.00;92.50;;;3.19;71.94;101087.00;10443808;27;96463;-84
2023/03/01 04:29:28;;;;;;;14.33;8.77;;;5.00;92.60;;;3.14;71.80;101081.19;10483120;27;98296;-84
2023/03/01 04:34:31;;;;;;;14.73;9.97;;;5.00;92.70;;;3.13;72.26;101087.41;10478858;27;97369;-84
2023/03/01 04:39:45;;;;;;;17.80;10.27;;;4.90;92.70;;;3.08;72.29;101077.19;10487086;27;97474;-83
2023/03/01 04:44:51;;;;;;;18.10;9.40;;;4.90;92.80;;;3.04;71.96;101080.09;10490417;27;98352;-86
2023/03/01 04:49:54;;;;;;;17.53;9.43;;;4.80;92.80;;;3.01;71.88;101070.63;10501206;27;98657;-83
2023/03/01 04:54:57;;;;;;;18.97;11.13;;;4.80;92.80;;;3.01;71.98;101069.81;10465897;27;96675;-85
2023/03/01 05:00:00;;;;;;;19.37;9.53;;;4.80;92.80;;;3.00;71.78;101060.22;10463255;27;96795;-85
2023/03/01 05:05:05;;;;;;;23.07;12.00;;;4.80;92.80;;;3.00;71.63;101070.72;10468765;27;96863;-85
2023/03/01 05:10:09;;;;;;;16.13;8.83;;;4.80;92.80;;;2.99;71.17;101061.16;10468482;27;98147;-85
2023/03/01 05:15:12;;;;;;;18.90;9.60;;;4.80;92.70;;;2.99;71.30;101063.78;10466999;27;96564;-86
2023/03/01 05:20:16;;;;;;;16.93;10.03;;;4.80;92.70;;;3.00;71.17;101073.34;10477774;27;96664;-86
2023/03/01 05:25:21;;;;;;;15.77;8.50;;;4.80;92.70;;;2.96;70.86;101070.09;10491940;27;96646;-86
2023/03/01 05:30:24;;;;;;;15.97;9.03;;;4.80;92.70;;;2.99;71.18;101071.66;10492408;27;98632;-86
2023/03/01 05:35:29;;;;;;;16.63;9.30;;;4.80;92.70;;;3.01;70.77;101068.00;10470628;27;96558;-86
2023/03/01 05:40:35;;;;;;;12.73;9.13;;;4.80;92.70;;;3.04;71.03;101077.47;10465418;27;96557;-86
2023/03/01 05:45:40;;;;;;;15.93;10.10;;;4.80;92.70;;;3.07;71.16;101086.00;10463558;27;98004;-86
2023/03/01 05:50:45;;;;;;;14.30;9.30;;;4.90;92.70;;;3.09;71.01;101076.22;10477893;27;97563;-82
2023/03/01 05:55:49;;;;;;;18.00;10.60;;;4.90;92.70;;;3.11;70.97;101082.22;10527297;27;96553;-83
2023/03/01 06:00:52;;;;;;;23.27;13.63;;;4.90;92.70;;;3.16;70.99;101084.56;10480885;27;98630;-83
2023/03/01 06:05:58;;;;;;;19.37;13.10;;;5.00;92.70;;;3.19;71.00;101087.84;10508645;27;96543;-83
2023/03/01 06:11:02;;;;;;;19.47;11.53;;;5.00;92.70;;;3.26;70.97;101085.66;10485288;27;97040;-83
2023/03/01 06:16:06;;;;;;;20.73;11.80;;;5.00;92.70;;;3.32;70.89;101087.88;10494803;27;96889;-83
2023/03/01 06:21:10;;;;;;;23.63;14.73;;;5.10;92.80;;;3.38;70.99;101094.53;10511306;27;97363;-83
2023/03/01 06:26:13;;;;;;;29.07;15.67;;;5.10;92.90;;;3.46;70.85;101093.06;10524547;27;98238;-83
2023/03/01 06:31:16;;;;;;;19.80;11.07;;;5.20;92.90;;;3.52;70.30;101091.81;10496569;27;98911;-83
2023/03/01 06:36:20;;;;;;;20.60;12.43;;;5.20;92.70;;;3.57;69.92;101107.31;10503475;27;96640;-82
2023/03/01 06:41:24;;;;;;;30.83;15.13;;;5.30;92.70;;;3.66;69.95;101115.44;10493797;27;96641;-86
2023/03/01 06:46:27;;;;;;;43.33;22.07;;;5.40;92.70;;;3.71;69.24;101104.59;10506643;27;96529;-86
2023/03/01 06:51:30;;;;;;;41.30;24.27;;;5.40;92.50;;;3.82;69.16;101109.16;10461740;27;96615;-86
2023/03/01 06:56:33;;;;;;;19.83;11.90;;;5.50;92.50;;;3.94;69.27;101106.53;10445731;27;98181;-86
2023/03/01 07:01:36;;;;;;;20.30;12.50;;;5.60;92.50;;;4.06;68.76;101106.66;10454245;27;97604;-82
2023/03/01 07:06:40;;;;;;;20.67;12.97;;;5.70;92.50;;;4.15;68.63;101103.41;10442418;27;97153;-82
2023/03/01 07:11:43;;;;;;;20.93;12.40;;;5.80;92.40;;;4.27;68.29;101111.31;10438180;27;98427;-82
2023/03/01 07:16:47;;;;;;;17.97;12.00;;;5.90;92.30;;;4.37;68.09;101119.41;10450487;27;98353;-80
2023/03/01 07:21:50;;;;;;;23.30;12.87;;;6.10;92.30;;;4.51;67.87;101107.94;10428501;27;98412;-80
2023/03/01 07:26:53;;;;;;;21.17;13.20;;;6.20;92.20;;;4.61;67.21;101106.31;10449993;27;96541;-81
2023/03/01 07:31:56;;;;;;;19.97;11.97;;;6.30;92.00;;;4.74;66.81;101104.53;10486113;27;97695;-81
2023/03/01 07:37:00;;;;;;;16.23;11.30;;;6.40;91.80;;;4.80;66.11;101098.00;10460748;27;96712;-80
2023/03/01 07:42:03;;;;;;;18.53;11.73;;;6.40;91.60;;;4.97;65.81;101096.78;10433420;27;98420;-80
2023/03/01 07:47:06;;;;;;;18.53;10.53;;;6.60;91.60;;;5.16;64.95;101085.75;10442420;27;96667;-81
2023/03/01 07:52:12;;;;;;;17.97;10.60;;;6.80;91.30;;;5.28;63.85;101084.88;10439883;27;96539;-81
2023/03/01 07:57:15;;;;;;;16.93;10.37;;;6.90;90.60;;;5.36;62.80;101088.63;10471240;27;96677;-81
2023/03/01 08:02:18;;;;;;;17.93;11.10;;;7.00;90.30;;;5.45;62.25;101071.28;10502408;27;98592;-81
2023/03/01 08:07:21;;;;;;;15.50;10.47;;;7.10;90.00;;;5.75;62.38;101072.59;10475369;27;99052;-81
2023/03/01 08:12:24;;;;;;;17.30;10.83;;;7.30;90.10;;;6.04;61.76;101070.41;10475239;27;98102;-80
2023/03/01 08:17:28;;;;;;;18.00;9.53;;;7.50;89.20;;;6.33;60.85;101069.00;10488727;27;96677;-81
2023/03/01 08:22:31;;;;;;;16.03;8.53;;;7.80;89.00;;;6.49;59.46;101062.53;10468877;27;96581;-81
2023/03/01 08:27:34;;;;;;;13.93;8.00;;;8.00;88.10;;;6.70;58.37;101060.81;10497488;27;98602;-81
2023/03/01 08:32:39;;;;;;;13.10;7.83;;;8.10;86.90;;;7.09;58.30;101056.81;10502636;27;96802;-81
2023/03/01 08:37:42;;;;;;;11.70;7.10;;;8.40;87.30;;;7.76;57.08;101045.09;10482350;27;96661;-81
2023/03/01 08:42:45;;;;;;;11.17;7.30;;;8.80;86.10;;;8.39;53.35;101040.59;10471943;27;96578;-81
2023/03/01 08:47:53;;;;;;;10.43;6.40;;;9.40;83.50;;;9.58;52.59;101029.91;10519176;27;96601;-81
2023/03/01 08:52:56;;;;;;;63.10;28.23;;;10.40;83.70;;;10.30;48.99;101025.84;10510861;27;96641;-81
2023/03/01 08:57:59;;;;;;;9.03;6.20;;;11.00;79.30;;;10.59;46.88;101024.88;10508564;27;96693;-81
2023/03/01 09:03:05;;;;;;;8.33;6.00;;;11.20;76.70;;;10.55;46.42;101005.72;10516824;27;96547;-81
2023/03/01 09:08:08;;;;;;;8.17;5.53;;;11.40;74.40;;;10.28;45.59;101006.56;10494137;27;97429;-81
2023/03/01 09:13:12;;;;;;;8.10;5.17;;;11.30;72.00;;;10.40;46.32;101008.06;10496903;27;97399;-81
2023/03/01 09:18:15;;;;;;;7.80;5.78;;;11.20;73.00;;;10.73;45.74;101005.75;10490670;27;98284;-81
2023/03/01 09:23:18;;;;;;;8.27;6.00;;;11.50;72.10;;;10.60;44.13;100994.66;10476777;27;98409;-81
2023/03/01 09:28:23;;;;;;;8.18;6.25;;;11.60;70.60;;;10.68;44.56;100992.94;10511086;27;97319;-81
2023/03/01 09:33:33;;;;;;;9.93;5.95;;;11.70;69.50;;;10.88;44.58;100988.34;10506772;27;96726;-82
2023/03/01 09:38:37;;;;;;;10.10;6.45;;;11.80;69.30;;;11.18;44.70;100981.81;10507761;27;97163;-80
2023/03/01 09:43:46;;;;;;;9.38;6.43;;;12.20;68.70;;;11.56;43.74;100984.25;10501428;27;98444;-80
2023/03/01 09:48:57;;;;;;;10.27;6.55;;;12.70;67.60;;;11.92;43.39;100969.91;10488979;27;96612;-81
2023/03/01 09:54:05;;;;;;;9.05;6.45;;;13.10;66.60;;;12.13;42.98;100958.03;10493904;27;96528;-80
2023/03/01 09:59:14;;;;;;;10.48;7.35;;;13.50;65.70;;;12.28;42.74;100951.91;10506668;27;97344;-81
2023/03/01 10:04:41;;;;;;;9.43;7.43;;;13.60;64.70;;;12.08;41.70;100949.69;10505159;27;98512;-81
2023/03/01 10:09:46;;;;;;;9.77;6.68;;;13.60;62.50;;;11.79;42.90;100946.31;10499565;27;97400;-80
2023/03/01 10:15:17;;;;;;;11.65;7.55;;;13.30;63.20;;;11.49;43.04;100944.97;10514811;27;98656;-80
2023/03/01 10:20:23;;;;;;;10.10;7.28;;;13.00;63.10;;;11.65;44.24;100943.41;10500126;27;96791;-81
2023/03/01 10:25:38;;;;;;;8.52;6.53;;;13.10;64.40;;;12.15;43.63;100929.38;10493189;27;97986;-79
2023/03/01 10:30:45;;;;;;;10.27;7.68;;;13.50;64.30;;;12.70;42.28;100910.22;10495393;27;98591;-79
2023/03/01 10:35:48;;;;;;;9.60;7.50;;;14.00;62.90;;;13.11;41.64;100892.41;10505929;27;98245;-80
2023/03/01 10:41:07;;;;;;;9.52;7.60;;;14.30;62.50;;;13.36;41.23;100888.75;10497562;27;96522;-81
2023/03/01 10:46:34;;;;;;;10.63;6.38;;;14.70;62.00;;;13.67;41.67;100893.34;10489356;27;96600;-80
2023/03/01 10:51:47;;;;;;;9.25;7.28;;;15.20;62.00;;;14.09;40.46;100884.19;10476672;27;96646;-80
2023/03/01 10:57:01;;;;;;;12.10;6.50;;;15.70;60.00;;;14.52;39.99;100865.97;10487151;27;97674;-81
2023/03/01 11:02:21;;;;;;;8.40;7.05;;;16.10;59.20;;;14.65;38.28;100848.31;10501842;27;97388;-80
2023/03/01 11:07:28;;;;;;;10.15;6.70;;;16.60;57.60;;;14.91;38.89;100852.44;10519757;27;96685;-80
2023/03/01 11:12:33;;;;;;;9.10;6.60;;;16.70;57.40;;;15.19;38.14;100842.81;10511598;27;96691;-80
2023/03/01 11:17:38;;;;;;;8.82;6.63;;;16.90;56.80;;;15.30;37.53;100840.72;10520745;27;96427;-80
2023/03/01 11:23:10;;;;;;;9.13;6.28;;;16.90;55.80;;;15.43;38.01;100843.59;10482163;27;96680;-80
2023/03/01 11:28:17;;;;;;;7.65;6.38;;;17.00;56.10;;;15.77;36.88;100837.69;10488634;27;97686;-80
2023/03/01 11:33:43;;;;;;;8.98;5.90;;;17.50;54.80;;;15.97;36.00;100822.72;10495707;27;96664;-80
2023/03/01 11:38:48;;;;;;;7.82;5.85;;;17.70;54.10;;;15.94;36.74;100822.25;10511966;27;96748;-80
2023/03/01 11:44:22;;;;;;;10.00;6.50;;;17.60;54.10;;;16.43;35.92;100817.00;10469603;27;96610;-80
2023/03/01 11:49:53;;;;;;;9.60;6.65;;;18.10;53.70;;;16.73;35.73;100815.09;10522905;27;96954;-81
2023/03/01 11:55:23;;;;;;;7.10;6.28;;;18.60;53.10;;;17.02;35.02;100805.19;10473634;27;97886;-81
2023/03/01 12:00:48;;;;;;;6.95;5.82;;;18.90;52.20;;;16.91;34.32;100803.03;10492435;27;96587;-81
2023/03/01 12:06:23;;;;;;;8.13;6.57;;;18.80;51.50;;;15.79;35.38;100806.19;10485976;27;96554;-81
2023/03/01 12:12:01;;;;;;;8.38;6.45;;;17.80;51.30;;;15.51;35.97;100785.41;10497857;27;98171;-80
2023/03/01 12:17:04;;;;;;;9.27;6.32;;;17.30;52.00;;;15.20;36.30;100790.94;10497698;27;96556;-81
2023/03/01 12:22:32;;;;;;;7.70;6.15;;;17.00;52.30;;;14.65;37.15;100781.44;10483623;27;98264;-80
2023/03/01 12:27:53;;;;;;;9.48;5.75;;;16.40;52.70;;;14.42;37.87;100783.25;10447057;27;96881;-81
2023/03/01 12:33:27;;;;;;;;;;;15.90;53.40;;;14.22;38.65;100779.41;10465373;27;98577;-81
2023/03/01 12:38:42;;;;;;;9.13;5.53;;;15.70;54.50;;;13.93;38.49;100771.03;10443322;27;96573;-80
2023/03/01 12:44:06;;;;;;;7.15;5.00;;;15.50;54.40;;;13.69;39.64;100770.34;10444552;27;96533;-80
2023/03/01 12:49:25;;;;;;;7.68;4.95;;;15.30;54.90;;;13.31;40.43;100748.78;10444218;27;96693;-81
2023/03/01 12:54:35;;;;;;;6.25;4.88;;;14.90;55.90;;;13.31;40.97;100760.31;10450632;27;97972;-81
2023/03/01 13:00:31;;;;;;;10.20;6.80;;;14.80;56.50;;;13.06;41.08;100742.66;10473270;27;96631;-80
2023/03/01 13:06:01;;;;;;;8.25;6.00;;;14.50;56.70;;;12.78;41.88;100750.25;10468118;27;98110;-81
2023/03/01 13:11:11;;;;;;;7.53;5.17;;;14.30;57.30;;;12.65;42.54;100749.88;10491974;27;96691;-80
2023/03/01 13:16:29;;;;;;;121.20;108.95;;;14.20;57.90;;;12.52;42.27;100745.91;10477591;27;96627;-80
2023/03/01 13:21:33;;;;;;;10.63;6.80;;;14.10;57.70;;;12.03;43.33;100748.53;10486236;27;97671;-80
2023/03/01 13:27:09;;;;;;;7.73;5.27;;;13.90;58.20;;;12.05;43.77;100743.91;10468143;27;96695;-81
2023/03/01 13:32:28;;;;;;;26.83;21.10;;;13.80;58.90;;;12.03;44.34;100745.88;10481690;27;96686;-81
2023/03/01 13:37:47;;;;;;;30.58;20.20;;;13.70;59.30;;;12.09;44.24;100733.72;10465391;27;96565;-81
2023/03/01 13:42:55;;;;;;;10.00;6.05;;;13.70;59.30;;;11.97;43.96;100722.56;10499646;27;96620;-81
2023/03/01 13:48:25;;;;;;;7.83;5.57;;;13.70;59.50;;;11.80;44.60;100712.81;10477555;27;96460;-81
2023/03/01 13:53:34;;;;;;;6.20;4.70;;;13.50;59.30;;;11.72;44.78;100710.16;10485995;27;96616;-81
2023/03/01 13:59:05;;;;;;;9.33;5.17;;;13.30;59.70;;;11.54;45.31;100718.25;10482501;27;98203;-81
2023/03/01 14:04:25;;;;;;;12.30;6.73;;;13.10;60.40;;;11.41;45.44;100696.59;10489724;27;99190;-82
2023/03/01 14:09:31;;;;;;;9.53;7.40;;;13.00;60.40;;;11.33;45.45;100685.91;10488327;27;97622;-81
2023/03/01 14:14:47;;;;;;;8.03;5.27;;;12.90;60.50;;;11.26;45.99;100677.72;10473700;27;96595;-81
2023/03/01 14:20:00;;;;;;;6.10;4.10;;;12.70;61.10;;;11.18;46.08;100667.91;10479033;27;96588;-82
2023/03/01 14:25:17;;;;;;;7.80;4.47;;;12.70;61.90;;;11.05;46.22;100680.81;10501871;27;98672;-82
2023/03/01 14:30:26;;;;;;;6.27;3.83;;;12.60;61.70;;;11.07;47.18;100667.34;10494384;27;98071;-82
2023/03/01 14:35:36;;;;;;;8.80;4.40;;;12.50;62.70;;;11.08;47.40;100661.03;10505633;27;96924;-82
2023/03/01 14:40:39;;;;;;;5.50;3.50;;;12.50;62.70;;;11.08;47.12;100669.03;10479572;27;96626;-81
2023/03/01 14:45:48;;;;;;;8.70;3.80;;;12.50;62.90;;;11.06;47.18;100649.75;10511864;27;96510;-81
2023/03/01 14:50:52;;;;;;;9.97;4.57;;;12.50;62.80;;;11.04;47.24;100641.94;10511075;27;96684;-81
2023/03/01 14:56:03;;;;;;;8.67;4.90;;;12.50;63.10;;;10.97;47.44;100643.53;10472699;27;98460;-81
2023/03/01 15:01:08;;;;;;;8.37;4.47;;;12.40;63.30;;;10.93;47.71;100632.41;10487828;27;96531;-82
2023/03/01 15:06:15;;;;;;;7.80;4.87;;;12.40;63.60;;;10.91;47.74;100626.38;10504852;27;96665;-81
2023/03/01 15:11:29;;;;;;;8.83;3.87;;;12.40;63.60;;;10.91;47.79;100625.56;10508609;27;97556;-80
2023/03/01 15:16:34;;;;;;;9.83;4.97;;;12.40;63.70;;;10.84;48.06;100617.38;10488004;27;96810;-82
2023/03/01 15:21:39;;;;;;;8.67;4.10;;;12.30;63.50;;;10.77;47.86;100616.38;10479642;27;97463;-81
2023/03/01 15:26:46;;;;;;;8.50;4.03;;;12.20;64.10;;;10.69;48.44;100619.00;10489931;27;96590;-81
2023/03/01 15:31:58;;;;;;;7.20;4.80;;;12.20;64.10;;;10.60;48.53;100636.69;10498641;27;97142;-81
2023/03/01 15:37:05;;;;;;;7.50;4.20;;;12.10;64.40;;;10.48;48.76;100632.66;10496150;27;97293;-82
2023/03/01 15:42:32;;;;;;;8.30;3.50;;;12.00;64.50;;;10.31;49.05;100631.69;10480237;27;97719;-81
2023/03/01 15:47:39;;;;;;;7.23;3.87;;;11.90;64.80;;;10.15;49.55;100621.78;10493816;27;97888;-82
2023/03/01 15:52:43;;;;;;;6.17;3.70;;;11.70;65.20;;;9.96;50.10;100629.09;10485479;27;96632;-81
2023/03/01 15:57:47;;;;;;;6.80;4.07;;;11.50;65.40;;;9.75;50.38;100640.84;10465624;27;97343;-82
2023/03/01 16:02:50;;;;;;;12.23;5.20;;;11.40;65.70;;;9.49;50.77;100640.75;10492255;27;99076;-86
2023/03/01 16:07:54;;;;;;;15.30;5.43;;;11.10;66.00;;;9.19;51.65;100643.75;10485452;27;98138;-86
2023/03/01 16:12:57;;;;;;;14.83;5.23;;;10.90;66.80;;;8.85;52.72;100636.38;10496046;27;97700;-83
2023/03/01 16:18:00;;;;;;;12.37;5.83;;;10.60;67.50;;;8.52;54.00;100637.75;10511960;27;96740;-82
2023/03/01 16:23:07;;;;;;;13.47;7.17;;;10.30;68.50;;;8.18;54.93;100635.53;10500933;27;97790;-82
2023/03/01 16:28:10;;;;;;;15.33;8.33;;;10.00;69.20;;;7.90;55.74;100641.69;10486392;27;96607;-82
2023/03/01 16:33:13;;;;;;;8.87;5.40;;;9.70;69.70;;;7.63;56.00;100651.16;10499142;27;98922;-82
2023/03/01 16:38:32;;;;;;;9.43;4.53;;;9.40;70.10;;;7.36;56.87;100665.03;10510467;27;98603;-82
2023/03/01 16:43:35;;;;;;;10.10;4.67;;;9.20;70.30;;;7.13;57.44;100669.69;10501110;27;98947;-82
2023/03/01 16:48:39;;;;;;;9.60;5.10;;;9.00;70.80;;;6.91;59.01;100672.53;10496751;27;97729;-83
2023/03/01 16:53:42;;;;;;;9.27;4.57;;;8.70;72.10;;;6.74;59.81;100678.44;10493516;27;96801;-90
2023/03/01 16:58:48;;;;;;;18.07;10.23;;;8.50;73.10;;;6.58;60.46;100684.19;10488899;27;97497;-85
2023/03/01 17:03:52;;;;;;;12.83;8.90;;;8.30;74.10;;;6.42;61.19;100684.66;10501584;27;96540;-90
2023/03/01 17:08:57;;;;;;;35.87;16.67;;;8.10;75.10;;;6.28;61.04;100703.44;10504147;27;97439;-89
2023/03/01 17:14:00;;;;;;;51.93;21.87;;;8.00;75.10;;;6.05;61.19;100698.25;10497621;27;96679;-89
2023/03/01 17:19:03;;;;;;;88.03;38.33;;;7.80;75.20;;;5.82;62.04;100696.66;10506324;27;98403;-88
2023/03/01 17:24:06;;;;;;;48.10;21.50;;;7.60;75.80;;;5.61;62.80;100689.50;10504776;27;96637;-88
2023/03/01 17:29:10;;;;;;;18.83;9.90;;;7.40;76.60;;;5.53;63.76;100693.75;10516755;27;96642;-88
2023/03/01 17:34:14;;;;;;;19.17;8.37;;;7.30;77.90;;;5.51;63.96;100696.47;10515484;27;96428;-88
2023/03/01 17:39:24;;;;;;;34.83;17.03;;;7.20;78.30;;;5.45;63.87;100694.34;10487599;27;96614;-88
2023/03/01 17:44:27;;;;;;;74.73;34.80;;;7.20;78.10;;;5.36;64.08;100689.81;10506523;27;96698;-89
2023/03/01 17:49:32;;;;;;;44.50;26.00;;;7.10;78.30;;;5.28;64.80;100692.22;10504428;27;96606;-89
2023/03/01 17:54:35;;;;;;;69.43;30.93;;;7.00;79.10;;;5.19;65.18;100700.84;10516754;27;97300;-90
2023/03/01 17:59:38;;;;;;;63.77;30.67;;;6.90;79.40;;;5.08;65.35;100694.63;10518130;27;97580;-89
2023/03/01 18:04:40;;;;;;;44.53;23.57;;;6.80;80.10;;;4.96;65.93;100705.28;10503513;27;96588;-87
2023/03/01 18:09:44;;;;;;;54.60;24.80;;;6.70;80.50;;;4.77;66.12;100697.97;10515108;27;97150;-88
2023/03/01 18:14:52;;;;;;;51.43;26.17;;;6.60;80.80;;;4.55;66.89;100698.75;10515275;27;96637;-91
2023/03/01 18:19:56;;;;;;;39.93;22.83;;;6.40;81.60;;;4.34;67.16;100703.03;10511905;27;96710;-89
2023/03/01 18:24:59;;;;;;;48.47;22.97;;;6.20;81.70;;;4.17;67.78;100699.03;10508098;27;97228;-90
2023/03/01 18:30:05;;;;;;;57.23;24.53;;;6.00;82.00;;;3.99;67.97;100695.97;10513642;27;96621;-90
2023/03/01 18:35:08;;;;;;;32.30;16.40;;;5.80;82.40;;;3.81;68.51;100694.72;10498498;27;98168;-88
2023/03/01 18:40:12;;;;;;;66.30;26.87;;;5.70;82.90;;;3.65;69.54;100692.34;10495441;27;96598;-88
2023/03/01 18:45:16;;;;;;;62.43;21.90;;;5.50;84.00;;;3.50;69.70;100689.06;10493050;27;97245;-85
2023/03/01 18:50:19;;;;;;;66.13;24.70;;;5.40;84.10;;;3.33;69.97;100694.69;10513529;27;96619;-82
2023/03/01 18:55:22;;;;;;;41.27;17.33;;;5.20;84.50;;;3.19;70.12;100700.91;10529026;27;96884;-84
2023/03/01 19:00:25;;;;;;;42.63;16.07;;;5.10;85.00;;;3.04;70.82;100691.47;10514664;27;96811;-85
2023/03/01 19:05:30;;;;;;;27.30;13.90;;;4.90;85.70;;;2.92;71.15;100704.50;10489743;27;96657;-85
2023/03/01 19:10:33;;;;;;;32.67;16.50;;;4.80;86.10;;;2.82;71.39;100700.84;10462571;27;97882;-87
2023/03/01 19:15:36;;;;;;;49.33;24.40;;;4.70;86.90;;;2.75;72.24;100710.06;10509016;27;98609;-90
2023/03/01 19:20:39;;;;;;;40.93;20.60;;;4.70;87.90;;;2.66;72.91;100714.19;10491782;27;97326;-88
2023/03/01 19:25:42;;;;;;;35.57;19.83;;;4.50;88.30;;;2.54;73.20;100715.03;10512667;27;98705;-88
2023/03/01 19:30:45;;;;;;;25.33;14.50;;;4.50;89.00;;;2.40;73.61;100715.13;10490382;27;97649;-89
2023/03/01 19:35:50;;;;;;;26.67;13.90;;;4.40;89.50;;;2.31;74.14;100708.69;10503145;27;96576;-89
2023/03/01 19:40:54;;;;;;;25.83;14.30;;;4.20;90.40;;;2.22;74.50;100714.56;10504169;27;97074;-89
2023/03/01 19:45:57;;;;;;;29.67;15.40;;;4.10;90.60;;;2.12;75.39;100716.94;10497979;27;96555;-88
2023/03/01 19:51:01;;;;;;;27.03;13.97;;;4.00;91.30;;;2.04;75.93;100702.63;10525490;27;96600;-89
2023/03/01 19:56:05;;;;;;;24.10;12.10;;;3.90;92.10;;;1.96;76.00;100700.53;10502204;27;96629;-88
2023/03/01 20:01:16;;;;;;;14.23;8.27;;;3.90;92.10;;;2.05;77.58;100704.34;10496335;27;97453;-89
2023/03/01 20:06:20;;;;;;;15.65;8.82;;;3.90;92.50;;;2.09;77.36;100713.66;10481547;27;96765;-88
2023/03/01 20:11:23;;;;;;;15.23;7.90;;;3.90;92.90;;;2.02;76.77;100718.47;10479931;27;99503;-88
2023/03/01 20:16:26;;;;;;;17.60;10.10;;;3.90;93.20;;;1.96;76.91;100716.25;10511416;27;96560;-88
2023/03/01 20:21:32;;;;;;;17.57;10.37;;;3.80;93.90;;;1.86;77.39;100712.56;10524546;27;98207;-86
2023/03/01 20:26:36;;;;;;;43.53;21.80;;;3.70;94.10;;;1.76;77.68;100714.09;10484541;27;96530;-87
2023/03/01 20:31:41;;;;;;;38.23;22.10;;;3.60;94.50;;;1.62;77.98;100717.63;10508146;27;96598;-87
2023/03/01 20:36:44;;;;;;;30.87;18.17;;;3.50;95.00;;;1.51;78.00;100722.69;10520971;27;96667;-86
2023/03/01 20:41:47;;;;;;;39.27;21.00;;;3.40;95.20;;;1.42;78.10;100737.19;10507090;27;98330;-83
2023/03/01 20:46:50;;;;;;;36.07;20.07;;;3.30;95.40;;;1.31;78.55;100742.25;10461737;27;98472;-83
2023/03/01 20:51:53;;;;;;;28.57;16.57;;;3.20;95.70;;;1.22;78.88;100753.31;10508710;27;97896;-83
2023/03/01 20:56:56;;;;;;;18.40;11.47;;;3.20;96.80;;;1.14;79.41;100756.41;10482911;27;96680;-82
2023/03/01 21:01:59;;;;;;;19.60;11.17;;;3.10;96.70;;;1.09;79.60;100753.22;10491609;27;97567;-83
2023/03/01 21:07:03;;;;;;;20.67;11.97;;;3.00;97.10;;;1.02;80.14;100764.97;10512046;27;98572;-82
2023/03/01 21:12:06;;;;;;;21.87;11.07;;;3.00;97.60;;;0.99;80.34;100770.41;10500321;27;96615;-82